createdAt,value
2023-02-13T00:05:02.620Z,6.60
2023-02-13T00:11:04.460Z,6.60
2023-02-13T00:17:07.215Z,6.60
2023-02-13T00:23:08.922Z,6.60
2023-02-13T00:29:10.795Z,6.60
2023-02-13T00:35:13.057Z,6.50
2023-02-13T00:41:17.244Z,6.50
2023-02-13T00:47:19.727Z,6.40
2023-02-13T00:53:23.403Z,6.40
2023-02-13T00:59:25.225Z,6.40
2023-02-13T01:05:28.475Z,6.40
2023-02-13T01:11:30.838Z,6.40
2023-02-13T01:17:35.652Z,6.40
2023-02-13T01:23:38.894Z,6.30
2023-02-13T01:29:40.690Z,6.30
2023-02-13T01:35:45.311Z,6.20
2023-02-13T01:41:47.464Z,6.20
2023-02-13T01:47:54.264Z,6.20
2023-02-13T01:54:07.666Z,6.20
2023-02-13T02:00:16.186Z,6.20
2023-02-13T02:06:32.656Z,6.20
2023-02-13T02:12:43.737Z,6.20
2023-02-13T02:18:47.218Z,6.20
2023-02-13T02:25:04.360Z,6.20
2023-02-13T02:31:54.824Z,6.20
2023-02-13T02:38:15.002Z,6.10
2023-02-13T02:44:26.194Z,6.10
2023-02-13T02:50:41.674Z,6.20
2023-02-13T02:56:45.316Z,6.30
2023-02-13T03:03:06.673Z,6.20
2023-02-13T03:09:33.051Z,6.20
2023-02-13T03:15:57.582Z,6.30
2023-02-13T03:22:29.104Z,6.30
2023-02-13T03:29:11.417Z,6.20
2023-02-13T03:36:15.380Z,6.30
2023-02-13T03:42:44.326Z,6.40
2023-02-13T03:49:06.406Z,6.40
2023-02-13T03:55:32.756Z,6.30
2023-02-13T04:01:36.979Z,6.40
2023-02-13T04:07:40.412Z,6.30
2023-02-13T04:13:58.710Z,6.30
2023-02-13T04:20:01.354Z,6.30
2023-02-13T04:26:08.085Z,6.30
2023-02-13T04:32:11.490Z,6.20
2023-02-13T04:38:13.495Z,6.30
2023-02-13T04:44:15.270Z,6.20
2023-02-13T04:50:17.206Z,6.30
2023-02-13T04:56:22.284Z,6.30
2023-02-13T05:02:24.292Z,6.40
2023-02-13T05:08:26.084Z,6.40
2023-02-13T05:14:28.316Z,6.30
2023-02-13T05:20:30.297Z,6.30
2023-02-13T05:26:32.464Z,6.30
2023-02-13T05:32:34.300Z,6.30
2023-02-13T05:38:36.238Z,6.30
2023-02-13T05:44:38.203Z,6.20
2023-02-13T05:50:40.476Z,6.10
2023-02-13T05:56:42.287Z,6.00
2023-02-13T06:02:44.083Z,5.90
2023-02-13T06:08:47.037Z,5.80
2023-02-13T06:14:48.780Z,5.80
2023-02-13T06:20:50.598Z,5.80
2023-02-13T06:26:52.405Z,5.90
2023-02-13T06:32:54.200Z,6.00
2023-02-13T06:38:56.027Z,5.90
2023-02-13T06:44:57.864Z,5.80
2023-02-13T06:51:01.952Z,5.80
2023-02-13T06:57:03.834Z,5.70
2023-02-13T07:03:06.579Z,5.50
2023-02-13T07:09:08.588Z,5.60
2023-02-13T07:15:11.019Z,5.60
2023-02-13T07:21:13.191Z,5.60
2023-02-13T07:27:14.952Z,5.60
2023-02-13T07:33:16.663Z,5.60
2023-02-13T07:39:19.275Z,5.60
2023-02-13T07:45:21.128Z,5.70
2023-02-13T07:51:25.410Z,5.70
2023-02-13T07:57:27.434Z,5.80
2023-02-13T08:03:29.308Z,5.70
2023-02-13T08:09:49.611Z,5.70
2023-02-13T08:15:51.434Z,5.70
2023-02-13T08:21:53.354Z,5.80
2023-02-13T08:27:55.427Z,5.90
2023-02-13T08:33:57.874Z,5.80
2023-02-13T08:39:59.604Z,5.90
2023-02-13T08:46:01.630Z,5.90
2023-02-13T08:52:04.467Z,6.10
2023-02-13T08:58:06.221Z,6.20
2023-02-13T09:04:07.957Z,6.20
2023-02-13T09:10:10.437Z,6.20
2023-02-13T09:16:12.352Z,6.20
2023-02-13T09:22:17.096Z,6.30
2023-02-13T09:28:19.098Z,6.30
2023-02-13T09:34:21.061Z,6.40
2023-02-13T09:40:37.017Z,6.60
2023-02-13T09:46:40.555Z,6.50
2023-02-13T09:52:47.099Z,6.60
2023-02-13T09:59:02.822Z,6.60
2023-02-13T10:05:23.871Z,6.60
2023-02-13T10:11:31.731Z,6.60
2023-02-13T10:17:35.211Z,6.80
2023-02-13T10:23:45.901Z,6.90
2023-02-13T10:30:05.162Z,6.90
2023-02-13T10:36:11.771Z,7.00
2023-02-13T10:42:24.405Z,7.10
2023-02-13T10:48:45.930Z,7.10
2023-02-13T10:55:20.225Z,7.10
2023-02-13T11:01:44.734Z,7.30
2023-02-13T11:07:47.421Z,7.50
2023-02-13T11:14:07.503Z,7.60
2023-02-13T11:20:39.030Z,7.70
2023-02-13T11:26:41.018Z,7.90
2023-02-13T11:32:55.901Z,8.10
2023-02-13T11:39:06.813Z,8.20
2023-02-13T11:45:23.051Z,8.20
2023-02-13T11:51:44.846Z,8.20
2023-02-13T11:57:57.482Z,8.20
2023-02-13T12:04:05.906Z,8.20
2023-02-13T12:10:23.541Z,8.30
2023-02-13T12:16:50.468Z,8.40
2023-02-13T12:23:09.841Z,8.50
2023-02-13T12:29:39.186Z,8.40
2023-02-13T12:36:10.849Z,8.40
2023-02-13T12:42:58.255Z,8.50
2023-02-13T12:49:21.827Z,8.60
2023-02-13T12:55:26.645Z,8.50
2023-02-13T13:01:41.214Z,8.60
2023-02-13T13:08:03.761Z,8.80
2023-02-13T13:14:20.288Z,8.90
2023-02-13T13:21:00.460Z,9.10
2023-02-13T13:27:03.332Z,9.30
2023-02-13T13:33:18.362Z,9.40
2023-02-13T13:39:30.227Z,9.20
2023-02-13T13:46:02.840Z,9.30
2023-02-13T13:52:21.604Z,9.30
2023-02-13T13:58:24.769Z,9.30
2023-02-13T14:04:32.864Z,9.40
2023-02-13T14:10:34.888Z,9.30
2023-02-13T14:16:41.675Z,9.50
2023-02-13T14:22:44.595Z,9.50
2023-02-13T14:28:49.311Z,9.50
2023-02-13T14:34:55.118Z,9.50
2023-02-13T14:40:57.658Z,9.50
2023-02-13T14:47:12.511Z,9.50
2023-02-13T14:53:31.248Z,9.40
2023-02-13T14:59:37.272Z,9.40
2023-02-13T15:05:40.217Z,9.40
2023-02-13T15:11:43.879Z,9.30
2023-02-13T15:17:46.621Z,9.00
2023-02-13T15:23:57.860Z,9.00
2023-02-13T15:30:24.802Z,8.80
2023-02-13T15:36:34.086Z,8.80
2023-02-13T15:42:39.400Z,8.70
2023-02-13T15:48:41.219Z,8.40
2023-02-13T15:54:54.780Z,8.20
2023-02-13T16:00:59.773Z,8.10
2023-02-13T16:07:01.931Z,8.10
2023-02-13T16:13:15.936Z,7.90
2023-02-13T16:19:24.176Z,7.40
2023-02-13T16:25:32.098Z,7.00
2023-02-13T16:31:33.933Z,6.50
2023-02-13T16:37:35.822Z,5.70
2023-02-13T16:43:49.404Z,4.90
2023-02-13T16:49:57.238Z,4.30
2023-02-13T16:56:05.182Z,3.90
2023-02-13T17:02:21.101Z,3.50
2023-02-13T17:08:22.917Z,3.20
2023-02-13T17:14:24.644Z,2.90
2023-02-13T17:20:29.364Z,2.80
2023-02-13T17:26:31.299Z,2.70
2023-02-13T17:32:33.130Z,2.50
2023-02-13T17:38:34.913Z,2.40
2023-02-13T17:44:36.691Z,2.30
2023-02-13T17:50:38.808Z,2.30
2023-02-13T17:56:42.690Z,2.10
2023-02-13T18:02:44.893Z,2.00
2023-02-13T18:08:46.764Z,1.80
2023-02-13T18:14:49.443Z,1.70
2023-02-13T18:20:56.201Z,1.50
2023-02-13T18:27:05.713Z,1.50
2023-02-13T18:33:07.768Z,1.40
2023-02-13T18:39:09.648Z,1.40
2023-02-13T18:45:14.182Z,1.40
2023-02-13T18:51:16.017Z,1.40
2023-02-13T18:57:17.737Z,1.50
2023-02-13T19:03:19.551Z,1.60
2023-02-13T19:09:21.380Z,1.60
2023-02-13T19:15:23.268Z,1.50
2023-02-13T19:21:27.958Z,1.40
2023-02-13T19:27:29.840Z,1.20
2023-02-13T19:33:32.141Z,1.20
2023-02-13T19:39:34.332Z,1.10
2023-02-13T19:45:36.174Z,1.10
2023-02-13T19:51:38.370Z,1.30
2023-02-13T19:57:40.262Z,1.30
2023-02-13T20:03:42.874Z,1.10
2023-02-13T20:09:46.391Z,1.00
2023-02-13T20:15:48.907Z,1.10
2023-02-13T20:21:51.271Z,1.20
2023-02-13T20:27:53.050Z,1.10
2023-02-13T20:33:54.982Z,1.10
2023-02-13T20:39:56.771Z,1.00
2023-02-13T20:45:58.710Z,1.00
2023-02-13T20:52:00.690Z,0.90
2023-02-13T20:58:02.688Z,0.90
2023-02-13T21:04:04.534Z,0.90
2023-02-13T21:10:06.884Z,0.90
2023-02-13T21:16:18.470Z,0.90
2023-02-13T21:22:20.238Z,0.80
2023-02-13T21:28:22.073Z,0.70
2023-02-13T21:34:23.845Z,0.70
2023-02-13T21:40:25.562Z,0.70
2023-02-13T21:46:30.154Z,0.80
2023-02-13T21:52:31.995Z,0.80
2023-02-13T21:58:38.079Z,0.70
2023-02-13T22:04:41.964Z,0.50
2023-02-13T22:10:51.943Z,0.30
2023-02-13T22:16:53.787Z,0.20
2023-02-13T22:22:55.719Z,0.30
2023-02-13T22:29:03.928Z,0.50
2023-02-13T22:35:08.156Z,0.40
2023-02-13T22:41:12.684Z,0.50
2023-02-13T22:47:14.410Z,0.50
2023-02-13T22:53:16.685Z,0.40
2023-02-13T22:59:18.382Z,0.50
2023-02-13T23:05:20.193Z,0.60
2023-02-13T23:11:43.331Z,0.70
2023-02-13T23:18:03.724Z,0.80
2023-02-13T23:24:05.808Z,0.90
2023-02-13T23:30:08.924Z,0.90
2023-02-13T23:36:10.694Z,1.00
2023-02-13T23:42:12.411Z,1.00
2023-02-13T23:48:14.155Z,1.00
2023-02-13T23:54:18.469Z,0.90
